sensor_id;sensor_type;location;lat;lon;timestamp;P1;durP1;ratioP1;P2;durP2;ratioP2
33347;SDS011;19707;51.158;17.124;2024-03-07T00:02:20;26.50;;;15.30;;
33347;SDS011;19707;51.158;17.124;2024-03-07T00:05:22;30.70;;;17.80;;
33347;SDS011;19707;51.158;17.124;2024-03-07T00:08:27;33.60;;;18.50;;
33347;SDS011;19707;51.158;17.124;2024-03-07T00:11:29;36.00;;;19.00;;
33347;SDS011;19707;51.158;17.124;2024-03-07T00:14:32;35.00;;;19.30;;
33347;SDS011;19707;51.158;17.124;2024-03-07T00:17:37;28.70;;;15.10;;
33347;SDS011;19707;51.158;17.124;2024-03-07T00:20:39;30.00;;;16.70;;
33347;SDS011;19707;51.158;17.124;2024-03-07T00:23:41;34.10;;;17.40;;
33347;SDS011;19707;51.158;17.124;2024-03-07T00:26:43;25.80;;;13.20;;
33347;SDS011;19707;51.158;17.124;2024-03-07T00:29:45;32.80;;;17.20;;
33347;SDS011;19707;51.158;17.124;2024-03-07T00:32:57;16.20;;;10.20;;
33347;SDS011;19707;51.158;17.124;2024-03-07T00:35:59;20.90;;;10.50;;
33347;SDS011;19707;51.158;17.124;2024-03-07T00:39:01;34.90;;;17.40;;
33347;SDS011;19707;51.158;17.124;2024-03-07T00:42:03;32.80;;;15.50;;
33347;SDS011;19707;51.158;17.124;2024-03-07T00:45:05;32.20;;;15.80;;
33347;SDS011;19707;51.158;17.124;2024-03-07T00:48:08;19.30;;;11.30;;
33347;SDS011;19707;51.158;17.124;2024-03-07T00:51:10;22.10;;;11.80;;
33347;SDS011;19707;51.158;17.124;2024-03-07T00:54:12;33.50;;;17.90;;
33347;SDS011;19707;51.158;17.124;2024-03-07T00:57:14;28.00;;;15.60;;
33347;SDS011;19707;51.158;17.124;2024-03-07T01:00:16;31.10;;;17.90;;
33347;SDS011;19707;51.158;17.124;2024-03-07T01:03:22;27.50;;;13.90;;
33347;SDS011;19707;51.158;17.124;2024-03-07T01:06:26;31.50;;;17.40;;
33347;SDS011;19707;51.158;17.124;2024-03-07T01:09:28;27.20;;;14.30;;
33347;SDS011;19707;51.158;17.124;2024-03-07T01:12:30;20.60;;;13.00;;
33347;SDS011;19707;51.158;17.124;2024-03-07T01:15:32;26.40;;;13.90;;
33347;SDS011;19707;51.158;17.124;2024-03-07T01:18:35;26.90;;;15.00;;
33347;SDS011;19707;51.158;17.124;2024-03-07T01:21:37;31.00;;;15.80;;
33347;SDS011;19707;51.158;17.124;2024-03-07T01:24:39;29.70;;;15.10;;
33347;SDS011;19707;51.158;17.124;2024-03-07T01:27:41;29.50;;;15.50;;
33347;SDS011;19707;51.158;17.124;2024-03-07T01:30:43;29.00;;;14.90;;
33347;SDS011;19707;51.158;17.124;2024-03-07T01:33:45;18.20;;;10.00;;
33347;SDS011;19707;51.158;17.124;2024-03-07T01:36:47;24.40;;;15.90;;
33347;SDS011;19707;51.158;17.124;2024-03-07T01:39:49;23.00;;;12.90;;
33347;SDS011;19707;51.158;17.124;2024-03-07T01:42:51;27.20;;;13.60;;
33347;SDS011;19707;51.158;17.124;2024-03-07T01:45:53;28.20;;;14.80;;
33347;SDS011;19707;51.158;17.124;2024-03-07T01:48:57;27.20;;;13.90;;
33347;SDS011;19707;51.158;17.124;2024-03-07T01:52:00;24.20;;;11.60;;
33347;SDS011;19707;51.158;17.124;2024-03-07T01:55:03;26.50;;;15.00;;
33347;SDS011;19707;51.158;17.124;2024-03-07T01:58:05;21.30;;;12.80;;
33347;SDS011;19707;51.158;17.124;2024-03-07T02:01:08;27.90;;;15.70;;
33347;SDS011;19707;51.158;17.124;2024-03-07T02:04:11;26.00;;;14.50;;
33347;SDS011;19707;51.158;17.124;2024-03-07T02:07:13;29.70;;;13.30;;
33347;SDS011;19707;51.158;17.124;2024-03-07T02:10:14;24.20;;;13.50;;
33347;SDS011;19707;51.158;17.124;2024-03-07T02:13:17;15.40;;;8.70;;
33347;SDS011;19707;51.158;17.124;2024-03-07T02:16:19;20.90;;;11.40;;
33347;SDS011;19707;51.158;17.124;2024-03-07T02:19:21;24.60;;;14.50;;
33347;SDS011;19707;51.158;17.124;2024-03-07T02:22:24;19.30;;;10.50;;
33347;SDS011;19707;51.158;17.124;2024-03-07T02:25:28;21.20;;;10.20;;
33347;SDS011;19707;51.158;17.124;2024-03-07T02:28:29;24.80;;;12.50;;
33347;SDS011;19707;51.158;17.124;2024-03-07T02:31:31;27.40;;;13.70;;
33347;SDS011;19707;51.158;17.124;2024-03-07T02:34:38;19.70;;;10.80;;
33347;SDS011;19707;51.158;17.124;2024-03-07T02:37:40;21.60;;;12.70;;
33347;SDS011;19707;51.158;17.124;2024-03-07T02:40:42;24.90;;;13.60;;
33347;SDS011;19707;51.158;17.124;2024-03-07T02:43:44;31.30;;;15.50;;
33347;SDS011;19707;51.158;17.124;2024-03-07T02:46:46;28.60;;;15.20;;
33347;SDS011;19707;51.158;17.124;2024-03-07T02:49:51;26.80;;;14.50;;
33347;SDS011;19707;51.158;17.124;2024-03-07T02:52:53;25.50;;;13.90;;
33347;SDS011;19707;51.158;17.124;2024-03-07T02:55:55;22.70;;;13.00;;
33347;SDS011;19707;51.158;17.124;2024-03-07T02:58:57;21.90;;;13.00;;
33347;SDS011;19707;51.158;17.124;2024-03-07T03:01:58;21.90;;;11.20;;
33347;SDS011;19707;51.158;17.124;2024-03-07T03:05:00;21.40;;;11.80;;
33347;SDS011;19707;51.158;17.124;2024-03-07T03:08:02;19.90;;;9.80;;
33347;SDS011;19707;51.158;17.124;2024-03-07T03:14:11;20.70;;;11.10;;
33347;SDS011;19707;51.158;17.124;2024-03-07T03:17:15;18.80;;;9.30;;
33347;SDS011;19707;51.158;17.124;2024-03-07T03:20:17;29.40;;;14.30;;
33347;SDS011;19707;51.158;17.124;2024-03-07T03:23:35;27.10;;;15.10;;
33347;SDS011;19707;51.158;17.124;2024-03-07T03:26:37;22.50;;;11.70;;
33347;SDS011;19707;51.158;17.124;2024-03-07T03:29:39;23.50;;;13.10;;
33347;SDS011;19707;51.158;17.124;2024-03-07T03:32:42;28.60;;;14.20;;
33347;SDS011;19707;51.158;17.124;2024-03-07T03:35:44;12.80;;;6.30;;
33347;SDS011;19707;51.158;17.124;2024-03-07T03:38:46;23.10;;;12.70;;
33347;SDS011;19707;51.158;17.124;2024-03-07T03:41:48;25.90;;;13.20;;
33347;SDS011;19707;51.158;17.124;2024-03-07T03:44:53;22.90;;;11.00;;
33347;SDS011;19707;51.158;17.124;2024-03-07T03:47:55;28.20;;;14.80;;
33347;SDS011;19707;51.158;17.124;2024-03-07T03:50:57;20.90;;;9.40;;
33347;SDS011;19707;51.158;17.124;2024-03-07T03:53:58;25.50;;;13.40;;
33347;SDS011;19707;51.158;17.124;2024-03-07T03:57:03;24.30;;;12.90;;
33347;SDS011;19707;51.158;17.124;2024-03-07T04:00:06;29.10;;;13.60;;
33347;SDS011;19707;51.158;17.124;2024-03-07T04:03:14;26.10;;;11.90;;
33347;SDS011;19707;51.158;17.124;2024-03-07T04:06:16;27.10;;;15.10;;
33347;SDS011;19707;51.158;17.124;2024-03-07T04:09:18;23.20;;;12.90;;
33347;SDS011;19707;51.158;17.124;2024-03-07T04:12:21;25.00;;;11.90;;
33347;SDS011;19707;51.158;17.124;2024-03-07T04:15:23;23.80;;;13.00;;
33347;SDS011;19707;51.158;17.124;2024-03-07T04:18:28;24.50;;;12.60;;
33347;SDS011;19707;51.158;17.124;2024-03-07T04:21:30;26.30;;;14.50;;
33347;SDS011;19707;51.158;17.124;2024-03-07T04:24:32;27.70;;;15.00;;
33347;SDS011;19707;51.158;17.124;2024-03-07T04:27:34;25.80;;;13.20;;
33347;SDS011;19707;51.158;17.124;2024-03-07T04:30:38;28.00;;;14.30;;
33347;SDS011;19707;51.158;17.124;2024-03-07T04:33:40;18.60;;;10.00;;
33347;SDS011;19707;51.158;17.124;2024-03-07T04:36:42;26.10;;;14.00;;
33347;SDS011;19707;51.158;17.124;2024-03-07T04:39:44;24.60;;;13.20;;
33347;SDS011;19707;51.158;17.124;2024-03-07T04:42:47;28.90;;;15.20;;
33347;SDS011;19707;51.158;17.124;2024-03-07T04:45:51;16.70;;;8.80;;
33347;SDS011;19707;51.158;17.124;2024-03-07T04:48:53;23.60;;;12.80;;
33347;SDS011;19707;51.158;17.124;2024-03-07T04:51:55;27.70;;;15.50;;
33347;SDS011;19707;51.158;17.124;2024-03-07T04:58:02;26.20;;;13.40;;
33347;SDS011;19707;51.158;17.124;2024-03-07T05:01:05;24.10;;;13.00;;
33347;SDS011;19707;51.158;17.124;2024-03-07T05:04:07;16.30;;;9.30;;
33347;SDS011;19707;51.158;17.124;2024-03-07T05:07:09;24.40;;;12.00;;
33347;SDS011;19707;51.158;17.124;2024-03-07T05:10:10;23.80;;;13.80;;
33347;SDS011;19707;51.158;17.124;2024-03-07T05:13:12;24.20;;;14.20;;
33347;SDS011;19707;51.158;17.124;2024-03-07T05:16:14;21.00;;;11.70;;
33347;SDS011;19707;51.158;17.124;2024-03-07T05:19:16;23.10;;;13.90;;
33347;SDS011;19707;51.158;17.124;2024-03-07T05:22:18;29.20;;;17.30;;
33347;SDS011;19707;51.158;17.124;2024-03-07T05:25:23;26.60;;;14.60;;
33347;SDS011;19707;51.158;17.124;2024-03-07T05:28:25;26.30;;;13.40;;
33347;SDS011;19707;51.158;17.124;2024-03-07T05:31:27;31.20;;;16.60;;
33347;SDS011;19707;51.158;17.124;2024-03-07T05:34:29;50.00;;;28.40;;
33347;SDS011;19707;51.158;17.124;2024-03-07T05:37:34;29.20;;;18.10;;
33347;SDS011;19707;51.158;17.124;2024-03-07T05:40:36;29.10;;;17.80;;
33347;SDS011;19707;51.158;17.124;2024-03-07T05:43:38;26.30;;;13.70;;
33347;SDS011;19707;51.158;17.124;2024-03-07T05:46:41;28.10;;;14.70;;
33347;SDS011;19707;51.158;17.124;2024-03-07T05:49:48;27.20;;;13.70;;
33347;SDS011;19707;51.158;17.124;2024-03-07T05:52:50;40.20;;;15.70;;
33347;SDS011;19707;51.158;17.124;2024-03-07T05:55:52;23.10;;;13.10;;
33347;SDS011;19707;51.158;17.124;2024-03-07T05:58:54;30.40;;;16.00;;
33347;SDS011;19707;51.158;17.124;2024-03-07T06:01:56;22.30;;;11.30;;
33347;SDS011;19707;51.158;17.124;2024-03-07T06:04:58;19.50;;;10.60;;
33347;SDS011;19707;51.158;17.124;2024-03-07T06:08:00;15.50;;;8.60;;
33347;SDS011;19707;51.158;17.124;2024-03-07T06:11:02;32.00;;;16.10;;
33347;SDS011;19707;51.158;17.124;2024-03-07T06:14:05;24.30;;;13.30;;
33347;SDS011;19707;51.158;17.124;2024-03-07T06:17:08;24.60;;;15.20;;
33347;SDS011;19707;51.158;17.124;2024-03-07T06:20:10;32.60;;;17.10;;
33347;SDS011;19707;51.158;17.124;2024-03-07T06:23:24;28.50;;;13.40;;
33347;SDS011;19707;51.158;17.124;2024-03-07T06:26:30;24.90;;;14.50;;
33347;SDS011;19707;51.158;17.124;2024-03-07T06:29:47;24.00;;;14.50;;
33347;SDS011;19707;51.158;17.124;2024-03-07T06:32:52;16.00;;;8.30;;
33347;SDS011;19707;51.158;17.124;2024-03-07T06:35:54;19.60;;;11.90;;
33347;SDS011;19707;51.158;17.124;2024-03-07T06:38:57;22.40;;;13.30;;
33347;SDS011;19707;51.158;17.124;2024-03-07T06:41:59;25.20;;;14.10;;
33347;SDS011;19707;51.158;17.124;2024-03-07T06:45:02;29.50;;;17.60;;
33347;SDS011;19707;51.158;17.124;2024-03-07T06:48:05;29.10;;;16.10;;
33347;SDS011;19707;51.158;17.124;2024-03-07T06:51:11;32.60;;;15.30;;
33347;SDS011;19707;51.158;17.124;2024-03-07T06:54:13;23.50;;;12.40;;
33347;SDS011;19707;51.158;17.124;2024-03-07T06:57:17;21.00;;;12.40;;
33347;SDS011;19707;51.158;17.124;2024-03-07T07:00:19;28.80;;;14.40;;
33347;SDS011;19707;51.158;17.124;2024-03-07T07:03:21;22.00;;;12.90;;
33347;SDS011;19707;51.158;17.124;2024-03-07T07:06:24;21.70;;;12.50;;
33347;SDS011;19707;51.158;17.124;2024-03-07T07:09:27;23.70;;;12.30;;
33347;SDS011;19707;51.158;17.124;2024-03-07T07:12:29;25.60;;;13.30;;
33347;SDS011;19707;51.158;17.124;2024-03-07T07:15:31;19.30;;;9.30;;
33347;SDS011;19707;51.158;17.124;2024-03-07T07:18:33;22.10;;;12.80;;
33347;SDS011;19707;51.158;17.124;2024-03-07T07:21:37;22.20;;;12.60;;
33347;SDS011;19707;51.158;17.124;2024-03-07T07:24:39;16.60;;;9.10;;
33347;SDS011;19707;51.158;17.124;2024-03-07T07:27:48;19.20;;;10.70;;
33347;SDS011;19707;51.158;17.124;2024-03-07T07:30:53;31.10;;;14.70;;
33347;SDS011;19707;51.158;17.124;2024-03-07T07:33:55;30.30;;;15.40;;
33347;SDS011;19707;51.158;17.124;2024-03-07T07:37:00;36.90;;;18.40;;
33347;SDS011;19707;51.158;17.124;2024-03-07T07:40:02;37.20;;;16.90;;
33347;SDS011;19707;51.158;17.124;2024-03-07T07:43:05;30.20;;;15.00;;
33347;SDS011;19707;51.158;17.124;2024-03-07T07:46:07;26.40;;;13.80;;
33347;SDS011;19707;51.158;17.124;2024-03-07T07:49:09;28.90;;;14.80;;
33347;SDS011;19707;51.158;17.124;2024-03-07T07:52:11;25.60;;;13.30;;
33347;SDS011;19707;51.158;17.124;2024-03-07T07:55:16;27.10;;;14.10;;
33347;SDS011;19707;51.158;17.124;2024-03-07T07:58:19;28.30;;;15.50;;
33347;SDS011;19707;51.158;17.124;2024-03-07T08:01:21;28.70;;;16.30;;
33347;SDS011;19707;51.158;17.124;2024-03-07T08:04:23;28.70;;;15.00;;
33347;SDS011;19707;51.158;17.124;2024-03-07T08:07:25;24.80;;;13.20;;
33347;SDS011;19707;51.158;17.124;2024-03-07T08:10:27;21.20;;;12.80;;
33347;SDS011;19707;51.158;17.124;2024-03-07T08:13:30;22.90;;;14.40;;
33347;SDS011;19707;51.158;17.124;2024-03-07T08:16:32;22.70;;;12.00;;
33347;SDS011;19707;51.158;17.124;2024-03-07T08:19:34;19.10;;;11.40;;
33347;SDS011;19707;51.158;17.124;2024-03-07T08:22:36;23.00;;;14.00;;
33347;SDS011;19707;51.158;17.124;2024-03-07T08:25:38;21.80;;;12.10;;
33347;SDS011;19707;51.158;17.124;2024-03-07T08:28:43;21.10;;;13.30;;
33347;SDS011;19707;51.158;17.124;2024-03-07T08:31:45;22.00;;;12.50;;
33347;SDS011;19707;51.158;17.124;2024-03-07T08:34:47;21.20;;;11.80;;
33347;SDS011;19707;51.158;17.124;2024-03-07T08:37:49;14.30;;;7.50;;
33347;SDS011;19707;51.158;17.124;2024-03-07T08:40:55;17.40;;;10.40;;
33347;SDS011;19707;51.158;17.124;2024-03-07T08:43:58;22.80;;;13.90;;
33347;SDS011;19707;51.158;17.124;2024-03-07T08:47:00;19.30;;;12.40;;
33347;SDS011;19707;51.158;17.124;2024-03-07T08:50:02;23.00;;;12.40;;
33347;SDS011;19707;51.158;17.124;2024-03-07T08:53:09;21.60;;;13.40;;
33347;SDS011;19707;51.158;17.124;2024-03-07T08:56:12;25.00;;;13.00;;
33347;SDS011;19707;51.158;17.124;2024-03-07T08:59:14;17.80;;;10.00;;
33347;SDS011;19707;51.158;17.124;2024-03-07T09:02:19;19.70;;;12.20;;
33347;SDS011;19707;51.158;17.124;2024-03-07T09:05:21;20.00;;;12.70;;
33347;SDS011;19707;51.158;17.124;2024-03-07T09:08:23;19.30;;;11.10;;
33347;SDS011;19707;51.158;17.124;2024-03-07T09:11:26;19.30;;;11.90;;
33347;SDS011;19707;51.158;17.124;2024-03-07T09:14:28;19.70;;;11.90;;
33347;SDS011;19707;51.158;17.124;2024-03-07T09:17:29;23.60;;;13.30;;
33347;SDS011;19707;51.158;17.124;2024-03-07T09:20:31;24.80;;;12.90;;
33347;SDS011;19707;51.158;17.124;2024-03-07T09:23:33;22.80;;;13.20;;
33347;SDS011;19707;51.158;17.124;2024-03-07T09:26:35;21.10;;;13.80;;
33347;SDS011;19707;51.158;17.124;2024-03-07T09:29:37;25.30;;;15.10;;
33347;SDS011;19707;51.158;17.124;2024-03-07T09:32:39;16.10;;;9.50;;
33347;SDS011;19707;51.158;17.124;2024-03-07T09:35:42;18.70;;;10.50;;
33347;SDS011;19707;51.158;17.124;2024-03-07T09:38:44;19.90;;;10.50;;
33347;SDS011;19707;51.158;17.124;2024-03-07T09:41:46;19.60;;;13.80;;
33347;SDS011;19707;51.158;17.124;2024-03-07T09:44:48;15.80;;;10.00;;
33347;SDS011;19707;51.158;17.124;2024-03-07T09:47:51;12.90;;;7.70;;
33347;SDS011;19707;51.158;17.124;2024-03-07T09:50:53;22.90;;;12.20;;
33347;SDS011;19707;51.158;17.124;2024-03-07T09:53:56;16.00;;;9.50;;
33347;SDS011;19707;51.158;17.124;2024-03-07T10:00:05;20.00;;;10.90;;
33347;SDS011;19707;51.158;17.124;2024-03-07T10:03:08;22.20;;;12.30;;
33347;SDS011;19707;51.158;17.124;2024-03-07T10:06:11;16.20;;;9.50;;
33347;SDS011;19707;51.158;17.124;2024-03-07T10:09:13;23.30;;;13.50;;
33347;SDS011;19707;51.158;17.124;2024-03-07T10:12:16;16.80;;;8.70;;
33347;SDS011;19707;51.158;17.124;2024-03-07T10:15:17;22.30;;;13.30;;
33347;SDS011;19707;51.158;17.124;2024-03-07T10:18:20;18.50;;;11.30;;
33347;SDS011;19707;51.158;17.124;2024-03-07T10:21:24;24.30;;;13.70;;
33347;SDS011;19707;51.158;17.124;2024-03-07T10:24:26;21.80;;;12.70;;
33347;SDS011;19707;51.158;17.124;2024-03-07T10:27:28;19.90;;;12.70;;
33347;SDS011;19707;51.158;17.124;2024-03-07T10:30:30;19.70;;;12.30;;
33347;SDS011;19707;51.158;17.124;2024-03-07T10:33:32;21.10;;;12.30;;
33347;SDS011;19707;51.158;17.124;2024-03-07T10:36:35;17.40;;;11.00;;
33347;SDS011;19707;51.158;17.124;2024-03-07T10:39:37;13.80;;;8.60;;
33347;SDS011;19707;51.158;17.124;2024-03-07T10:42:39;17.40;;;10.50;;
33347;SDS011;19707;51.158;17.124;2024-03-07T10:45:50;17.90;;;11.80;;
33347;SDS011;19707;51.158;17.124;2024-03-07T10:48:54;18.70;;;12.10;;
33347;SDS011;19707;51.158;17.124;2024-03-07T10:55:08;14.60;;;9.00;;
33347;SDS011;19707;51.158;17.124;2024-03-07T10:58:37;18.40;;;10.80;;
33347;SDS011;19707;51.158;17.124;2024-03-07T11:01:39;16.20;;;10.20;;
33347;SDS011;19707;51.158;17.124;2024-03-07T11:04:51;15.10;;;9.70;;
33347;SDS011;19707;51.158;17.124;2024-03-07T11:07:53;17.90;;;10.80;;
33347;SDS011;19707;51.158;17.124;2024-03-07T11:10:55;16.80;;;11.70;;
33347;SDS011;19707;51.158;17.124;2024-03-07T11:13:57;15.60;;;10.30;;
33347;SDS011;19707;51.158;17.124;2024-03-07T11:17:00;16.10;;;9.60;;
33347;SDS011;19707;51.158;17.124;2024-03-07T11:20:19;12.50;;;8.60;;
33347;SDS011;19707;51.158;17.124;2024-03-07T11:23:28;11.80;;;7.30;;
33347;SDS011;19707;51.158;17.124;2024-03-07T11:26:32;14.40;;;8.60;;
33347;SDS011;19707;51.158;17.124;2024-03-07T11:29:47;14.10;;;10.10;;
33347;SDS011;19707;51.158;17.124;2024-03-07T11:32:55;17.60;;;10.60;;
33347;SDS011;19707;51.158;17.124;2024-03-07T11:35:59;14.10;;;9.30;;
33347;SDS011;19707;51.158;17.124;2024-03-07T11:39:03;16.60;;;10.40;;
33347;SDS011;19707;51.158;17.124;2024-03-07T11:42:22;12.70;;;7.90;;
33347;SDS011;19707;51.158;17.124;2024-03-07T11:45:27;17.20;;;9.70;;
33347;SDS011;19707;51.158;17.124;2024-03-07T11:48:30;15.30;;;9.30;;
33347;SDS011;19707;51.158;17.124;2024-03-07T11:51:34;15.90;;;9.80;;
33347;SDS011;19707;51.158;17.124;2024-03-07T11:54:36;16.40;;;10.80;;
33347;SDS011;19707;51.158;17.124;2024-03-07T11:57:38;12.80;;;9.30;;
33347;SDS011;19707;51.158;17.124;2024-03-07T12:00:40;14.20;;;7.90;;
33347;SDS011;19707;51.158;17.124;2024-03-07T12:03:49;13.30;;;9.40;;
33347;SDS011;19707;51.158;17.124;2024-03-07T12:06:54;12.20;;;8.00;;
33347;SDS011;19707;51.158;17.124;2024-03-07T12:09:56;14.00;;;9.30;;
33347;SDS011;19707;51.158;17.124;2024-03-07T12:12:58;16.30;;;10.40;;
33347;SDS011;19707;51.158;17.124;2024-03-07T12:16:00;14.10;;;9.80;;
33347;SDS011;19707;51.158;17.124;2024-03-07T12:19:03;14.80;;;8.70;;
33347;SDS011;19707;51.158;17.124;2024-03-07T12:22:09;17.40;;;10.60;;
33347;SDS011;19707;51.158;17.124;2024-03-07T12:25:17;12.50;;;8.10;;
33347;SDS011;19707;51.158;17.124;2024-03-07T12:28:23;10.30;;;6.10;;
33347;SDS011;19707;51.158;17.124;2024-03-07T12:31:26;15.90;;;10.60;;
33347;SDS011;19707;51.158;17.124;2024-03-07T12:34:28;15.50;;;9.40;;
33347;SDS011;19707;51.158;17.124;2024-03-07T12:37:35;12.90;;;9.80;;
33347;SDS011;19707;51.158;17.124;2024-03-07T12:40:37;14.10;;;8.90;;
33347;SDS011;19707;51.158;17.124;2024-03-07T12:43:42;14.20;;;9.40;;
33347;SDS011;19707;51.158;17.124;2024-03-07T12:46:48;13.60;;;8.60;;
33347;SDS011;19707;51.158;17.124;2024-03-07T12:49:50;14.30;;;7.90;;
33347;SDS011;19707;51.158;17.124;2024-03-07T12:52:52;16.70;;;8.50;;
33347;SDS011;19707;51.158;17.124;2024-03-07T12:55:54;16.70;;;9.50;;
33347;SDS011;19707;51.158;17.124;2024-03-07T12:58:56;14.10;;;8.00;;
33347;SDS011;19707;51.158;17.124;2024-03-07T13:02:01;12.70;;;8.90;;
33347;SDS011;19707;51.158;17.124;2024-03-07T13:05:04;15.10;;;8.70;;
33347;SDS011;19707;51.158;17.124;2024-03-07T13:08:07;12.00;;;7.90;;
33347;SDS011;19707;51.158;17.124;2024-03-07T13:11:16;15.20;;;7.70;;
33347;SDS011;19707;51.158;17.124;2024-03-07T13:14:18;13.00;;;8.70;;
33347;SDS011;19707;51.158;17.124;2024-03-07T13:17:20;13.00;;;9.30;;
33347;SDS011;19707;51.158;17.124;2024-03-07T13:20:22;13.80;;;9.00;;
33347;SDS011;19707;51.158;17.124;2024-03-07T13:26:29;15.80;;;9.30;;
33347;SDS011;19707;51.158;17.124;2024-03-07T13:29:33;9.70;;;6.20;;
33347;SDS011;19707;51.158;17.124;2024-03-07T13:32:35;15.40;;;8.90;;
33347;SDS011;19707;51.158;17.124;2024-03-07T13:35:40;13.20;;;8.70;;
33347;SDS011;19707;51.158;17.124;2024-03-07T13:38:42;18.40;;;11.20;;
33347;SDS011;19707;51.158;17.124;2024-03-07T13:41:44;16.80;;;10.40;;
33347;SDS011;19707;51.158;17.124;2024-03-07T13:44:52;15.20;;;9.10;;
33347;SDS011;19707;51.158;17.124;2024-03-07T13:47:54;21.50;;;11.80;;
33347;SDS011;19707;51.158;17.124;2024-03-07T13:50:56;13.40;;;8.80;;
33347;SDS011;19707;51.158;17.124;2024-03-07T13:53:59;17.20;;;10.20;;
33347;SDS011;19707;51.158;17.124;2024-03-07T14:00:30;16.00;;;9.60;;
33347;SDS011;19707;51.158;17.124;2024-03-07T14:07:12;16.50;;;9.30;;
33347;SDS011;19707;51.158;17.124;2024-03-07T14:21:04;16.40;;;11.60;;
33347;SDS011;19707;51.158;17.124;2024-03-07T14:31:29;17.20;;;10.40;;
33347;SDS011;19707;51.158;17.124;2024-03-07T14:37:36;18.10;;;10.90;;
33347;SDS011;19707;51.158;17.124;2024-03-07T14:40:39;15.70;;;9.70;;
33347;SDS011;19707;51.158;17.124;2024-03-07T14:43:42;14.60;;;9.70;;
33347;SDS011;19707;51.158;17.124;2024-03-07T14:46:45;15.80;;;10.30;;
33347;SDS011;19707;51.158;17.124;2024-03-07T14:49:48;17.90;;;10.60;;
33347;SDS011;19707;51.158;17.124;2024-03-07T14:52:50;16.00;;;11.50;;
33347;SDS011;19707;51.158;17.124;2024-03-07T14:55:52;16.40;;;9.90;;
33347;SDS011;19707;51.158;17.124;2024-03-07T14:58:54;18.60;;;9.90;;
33347;SDS011;19707;51.158;17.124;2024-03-07T15:01:56;16.50;;;10.60;;
33347;SDS011;19707;51.158;17.124;2024-03-07T15:05:00;17.90;;;10.80;;
33347;SDS011;19707;51.158;17.124;2024-03-07T15:08:03;16.70;;;10.80;;
33347;SDS011;19707;51.158;17.124;2024-03-07T15:11:07;19.00;;;11.40;;
33347;SDS011;19707;51.158;17.124;2024-03-07T15:17:20;16.00;;;9.20;;
33347;SDS011;19707;51.158;17.124;2024-03-07T15:20:25;19.70;;;10.50;;
33347;SDS011;19707;51.158;17.124;2024-03-07T15:23:31;18.40;;;11.60;;
33347;SDS011;19707;51.158;17.124;2024-03-07T15:26:33;18.30;;;12.30;;
33347;SDS011;19707;51.158;17.124;2024-03-07T15:29:36;28.60;;;15.40;;
33347;SDS011;19707;51.158;17.124;2024-03-07T15:32:38;15.90;;;10.60;;
33347;SDS011;19707;51.158;17.124;2024-03-07T15:35:40;16.20;;;9.80;;
33347;SDS011;19707;51.158;17.124;2024-03-07T15:38:42;17.60;;;12.00;;
33347;SDS011;19707;51.158;17.124;2024-03-07T15:41:44;20.60;;;12.90;;
33347;SDS011;19707;51.158;17.124;2024-03-07T15:44:45;19.20;;;11.30;;
33347;SDS011;19707;51.158;17.124;2024-03-07T15:50:56;15.00;;;9.00;;
33347;SDS011;19707;51.158;17.124;2024-03-07T15:54:01;17.70;;;12.70;;
33347;SDS011;19707;51.158;17.124;2024-03-07T15:57:06;19.50;;;12.10;;
33347;SDS011;19707;51.158;17.124;2024-03-07T16:00:08;17.00;;;10.40;;
33347;SDS011;19707;51.158;17.124;2024-03-07T16:03:24;15.70;;;11.20;;
33347;SDS011;19707;51.158;17.124;2024-03-07T16:06:27;14.90;;;8.60;;
33347;SDS011;19707;51.158;17.124;2024-03-07T16:09:29;21.20;;;12.00;;
33347;SDS011;19707;51.158;17.124;2024-03-07T16:12:30;13.30;;;9.10;;
33347;SDS011;19707;51.158;17.124;2024-03-07T16:15:35;17.80;;;10.10;;
33347;SDS011;19707;51.158;17.124;2024-03-07T16:18:38;24.80;;;13.40;;
33347;SDS011;19707;51.158;17.124;2024-03-07T16:21:43;14.60;;;7.90;;
33347;SDS011;19707;51.158;17.124;2024-03-07T16:24:46;15.50;;;8.20;;
33347;SDS011;19707;51.158;17.124;2024-03-07T16:27:51;20.30;;;14.20;;
33347;SDS011;19707;51.158;17.124;2024-03-07T16:30:55;34.50;;;17.90;;
33347;SDS011;19707;51.158;17.124;2024-03-07T16:33:59;30.90;;;15.30;;
33347;SDS011;19707;51.158;17.124;2024-03-07T16:37:01;20.60;;;13.20;;
33347;SDS011;19707;51.158;17.124;2024-03-07T16:43:08;26.10;;;15.00;;
33347;SDS011;19707;51.158;17.124;2024-03-07T16:46:12;25.30;;;15.50;;
33347;SDS011;19707;51.158;17.124;2024-03-07T16:49:15;43.80;;;22.70;;
33347;SDS011;19707;51.158;17.124;2024-03-07T16:52:18;34.50;;;17.40;;
33347;SDS011;19707;51.158;17.124;2024-03-07T16:55:20;26.70;;;14.10;;
33347;SDS011;19707;51.158;17.124;2024-03-07T16:58:23;27.30;;;15.20;;
33347;SDS011;19707;51.158;17.124;2024-03-07T17:01:24;36.40;;;18.10;;
33347;SDS011;19707;51.158;17.124;2024-03-07T17:04:27;34.60;;;19.70;;
33347;SDS011;19707;51.158;17.124;2024-03-07T17:07:29;41.20;;;20.70;;
33347;SDS011;19707;51.158;17.124;2024-03-07T17:10:32;31.90;;;15.60;;
33347;SDS011;19707;51.158;17.124;2024-03-07T17:13:36;39.50;;;20.30;;
33347;SDS011;19707;51.158;17.124;2024-03-07T17:16:39;27.60;;;15.90;;
33347;SDS011;19707;51.158;17.124;2024-03-07T17:19:41;22.80;;;12.70;;
33347;SDS011;19707;51.158;17.124;2024-03-07T17:22:43;34.90;;;18.10;;
33347;SDS011;19707;51.158;17.124;2024-03-07T17:25:46;30.10;;;15.80;;
33347;SDS011;19707;51.158;17.124;2024-03-07T17:28:48;30.40;;;17.60;;
33347;SDS011;19707;51.158;17.124;2024-03-07T17:31:50;27.50;;;14.40;;
33347;SDS011;19707;51.158;17.124;2024-03-07T17:34:52;26.00;;;14.80;;
33347;SDS011;19707;51.158;17.124;2024-03-07T17:37:54;27.20;;;15.70;;
33347;SDS011;19707;51.158;17.124;2024-03-07T17:40:56;30.50;;;16.10;;
33347;SDS011;19707;51.158;17.124;2024-03-07T17:43:58;22.30;;;12.90;;
33347;SDS011;19707;51.158;17.124;2024-03-07T17:47:00;26.10;;;13.50;;
33347;SDS011;19707;51.158;17.124;2024-03-07T17:50:02;38.70;;;21.20;;
33347;SDS011;19707;51.158;17.124;2024-03-07T17:53:06;34.30;;;20.30;;
33347;SDS011;19707;51.158;17.124;2024-03-07T17:56:11;22.80;;;13.50;;
33347;SDS011;19707;51.158;17.124;2024-03-07T17:59:13;28.50;;;16.40;;
33347;SDS011;19707;51.158;17.124;2024-03-07T18:02:18;29.00;;;16.60;;
33347;SDS011;19707;51.158;17.124;2024-03-07T18:05:21;25.60;;;14.30;;
33347;SDS011;19707;51.158;17.124;2024-03-07T18:08:31;35.60;;;18.10;;
33347;SDS011;19707;51.158;17.124;2024-03-07T18:11:35;66.80;;;27.40;;
33347;SDS011;19707;51.158;17.124;2024-03-07T18:14:37;67.50;;;25.10;;
33347;SDS011;19707;51.158;17.124;2024-03-07T18:17:39;59.70;;;21.50;;
33347;SDS011;19707;51.158;17.124;2024-03-07T18:20:41;49.10;;;21.90;;
33347;SDS011;19707;51.158;17.124;2024-03-07T18:23:43;45.80;;;19.90;;
33347;SDS011;19707;51.158;17.124;2024-03-07T18:26:46;50.10;;;20.20;;
33347;SDS011;19707;51.158;17.124;2024-03-07T18:29:49;37.20;;;18.60;;
33347;SDS011;19707;51.158;17.124;2024-03-07T18:32:51;33.20;;;18.60;;